createdAt,value
2022-11-16T00:00:08.540Z,887.7
2022-11-16T00:01:00.904Z,887.8
2022-11-16T00:02:00.577Z,887.8
2022-11-16T00:03:00.518Z,887.8
2022-11-16T00:04:00.332Z,887.8
2022-11-16T00:05:00.523Z,887.8
2022-11-16T00:06:00.335Z,887.8
2022-11-16T00:07:00.442Z,887.8
2022-11-16T00:08:00.284Z,887.8
2022-11-16T00:09:00.402Z,887.8
2022-11-16T00:10:00.303Z,887.8
2022-11-16T00:11:00.338Z,887.8
2022-11-16T00:12:00.365Z,887.8
2022-11-16T00:13:00.596Z,887.8
2022-11-16T00:14:00.404Z,887.9
2022-11-16T00:15:00.339Z,887.9
2022-11-16T00:16:00.633Z,887.9
2022-11-16T00:17:00.506Z,887.9
2022-11-16T00:18:00.440Z,887.9
2022-11-16T00:19:01.485Z,887.9
2022-11-16T00:20:00.429Z,887.9
2022-11-16T00:21:00.506Z,887.9
2022-11-16T00:22:00.282Z,887.8
2022-11-16T00:23:00.393Z,887.9
2022-11-16T00:24:00.531Z,887.8
2022-11-16T00:25:00.497Z,887.8
2022-11-16T00:26:00.321Z,887.8
2022-11-16T00:27:00.447Z,887.8
2022-11-16T00:28:00.498Z,887.8
2022-11-16T00:29:00.375Z,887.8
2022-11-16T00:30:00.277Z,887.8
2022-11-16T00:31:00.467Z,887.8
2022-11-16T00:32:00.295Z,887.7
2022-11-16T00:33:00.300Z,887.7
2022-11-16T00:34:00.278Z,887.7
2022-11-16T00:35:00.314Z,887.7
2022-11-16T00:36:00.283Z,887.7
2022-11-16T00:37:00.430Z,887.7
2022-11-16T00:38:00.283Z,887.7
2022-11-16T00:39:00.311Z,887.7
2022-11-16T00:40:00.316Z,887.7
2022-11-16T00:41:00.306Z,887.7
2022-11-16T00:42:00.290Z,887.7
2022-11-16T00:43:00.481Z,887.7
2022-11-16T00:44:00.326Z,887.7
2022-11-16T00:45:00.324Z,887.6
2022-11-16T00:46:00.498Z,887.7
2022-11-16T00:47:00.359Z,887.7
2022-11-16T00:48:00.841Z,887.7
2022-11-16T00:49:00.516Z,887.6
2022-11-16T00:50:00.367Z,887.6
2022-11-16T00:51:00.294Z,887.6
2022-11-16T00:52:00.295Z,887.6
2022-11-16T00:53:00.336Z,887.6
2022-11-16T00:54:00.307Z,887.6
2022-11-16T00:55:00.631Z,887.6
2022-11-16T00:56:00.311Z,887.6
2022-11-16T00:57:00.342Z,887.6
2022-11-16T00:58:00.319Z,887.6
2022-11-16T00:59:00.356Z,887.6
2022-11-16T01:00:00.322Z,887.6
2022-11-16T01:01:00.504Z,887.6
2022-11-16T01:02:00.558Z,887.5
2022-11-16T01:03:00.319Z,887.5
2022-11-16T01:04:00.312Z,887.5
2022-11-16T01:05:00.283Z,887.5
2022-11-16T01:06:00.287Z,887.5
2022-11-16T01:07:00.493Z,887.5
2022-11-16T01:08:00.316Z,887.5
2022-11-16T01:09:00.279Z,887.5
2022-11-16T01:10:00.281Z,887.5
2022-11-16T01:11:00.298Z,887.5
2022-11-16T01:12:00.322Z,887.5
2022-11-16T01:13:00.506Z,887.5
2022-11-16T01:14:00.305Z,887.5
2022-11-16T01:15:00.325Z,887.5
2022-11-16T01:16:00.362Z,887.5
2022-11-16T01:17:00.307Z,887.5
2022-11-16T01:18:00.400Z,887.5
2022-11-16T01:19:00.490Z,887.5
2022-11-16T01:20:00.342Z,887.5
2022-11-16T01:21:00.357Z,887.5
2022-11-16T01:22:00.402Z,887.5
2022-11-16T01:23:00.313Z,887.5
2022-11-16T01:24:00.287Z,887.5
2022-11-16T01:25:00.457Z,887.5
2022-11-16T01:26:00.319Z,887.5
2022-11-16T01:27:00.321Z,887.5
2022-11-16T01:28:00.283Z,887.5
2022-11-16T01:29:00.282Z,887.5
2022-11-16T01:30:00.339Z,887.5
2022-11-16T01:31:00.446Z,887.5
2022-11-16T01:32:00.509Z,887.4
2022-11-16T01:33:00.417Z,887.4
2022-11-16T01:34:00.280Z,887.4
2022-11-16T01:35:00.359Z,887.4
2022-11-16T01:36:00.404Z,887.4
2022-11-16T01:37:00.451Z,887.4
2022-11-16T01:38:00.303Z,887.4
2022-11-16T01:39:00.341Z,887.4
2022-11-16T01:40:00.351Z,887.4
2022-11-16T01:41:00.324Z,887.4
2022-11-16T01:42:00.306Z,887.4
2022-11-16T01:43:00.504Z,887.4
2022-11-16T01:44:00.397Z,887.4
2022-11-16T01:45:00.328Z,887.4
2022-11-16T01:46:00.310Z,887.4
2022-11-16T01:47:00.286Z,887.4
2022-11-16T01:48:00.398Z,887.5
2022-11-16T01:49:00.454Z,887.5
2022-11-16T01:50:00.323Z,887.5
2022-11-16T01:51:00.311Z,887.5
2022-11-16T01:52:00.282Z,887.5
2022-11-16T01:53:00.316Z,887.6
2022-11-16T01:54:00.292Z,887.6
2022-11-16T01:55:00.522Z,887.6
2022-11-16T01:56:00.282Z,887.6
2022-11-16T01:57:00.339Z,887.6
2022-11-16T01:58:00.343Z,887.7
2022-11-16T01:59:00.302Z,887.7
2022-11-16T02:00:00.408Z,887.7
2022-11-16T02:01:00.755Z,887.7
2022-11-16T02:02:00.309Z,887.7
2022-11-16T02:03:00.294Z,887.7
2022-11-16T02:04:00.527Z,887.7
2022-11-16T02:05:00.306Z,887.7
2022-11-16T02:06:00.297Z,887.7
2022-11-16T02:07:00.444Z,887.7
2022-11-16T02:08:00.278Z,887.7
2022-11-16T02:09:00.321Z,887.7
2022-11-16T02:10:00.353Z,887.6
2022-11-16T02:11:00.294Z,887.7
2022-11-16T02:12:00.319Z,887.7
2022-11-16T02:13:00.450Z,887.7
2022-11-16T02:14:00.298Z,887.6
2022-11-16T02:15:00.295Z,887.6
2022-11-16T02:16:00.304Z,887.6
2022-11-16T02:17:00.313Z,887.6
2022-11-16T02:18:00.310Z,887.6
2022-11-16T02:19:00.594Z,887.6
2022-11-16T02:20:00.355Z,887.6
2022-11-16T02:21:00.316Z,887.6
2022-11-16T02:22:00.304Z,887.6
2022-11-16T02:23:00.306Z,887.6
2022-11-16T02:24:00.377Z,887.6
2022-11-16T02:25:00.497Z,887.6
2022-11-16T02:26:00.283Z,887.5
2022-11-16T02:27:00.323Z,887.5
2022-11-16T02:28:00.381Z,887.5
2022-11-16T02:29:00.306Z,887.5
2022-11-16T02:30:00.395Z,887.5
2022-11-16T02:31:00.500Z,887.5
2022-11-16T02:32:00.303Z,887.5
2022-11-16T02:33:00.302Z,887.5
2022-11-16T02:34:00.324Z,887.5
2022-11-16T02:35:00.359Z,887.5
2022-11-16T02:36:00.306Z,887.4
2022-11-16T02:37:00.465Z,887.4
2022-11-16T02:38:00.418Z,887.4
2022-11-16T02:39:00.312Z,887.4
2022-11-16T02:40:00.294Z,887.4
2022-11-16T02:41:00.313Z,887.4
2022-11-16T02:42:00.356Z,887.4
2022-11-16T02:43:00.527Z,887.4
2022-11-16T02:44:00.328Z,887.4
2022-11-16T02:45:00.292Z,887.4
2022-11-16T02:46:00.381Z,887.4
2022-11-16T02:47:00.309Z,887.4
2022-11-16T02:48:00.323Z,887.5
2022-11-16T02:49:00.430Z,887.4
2022-11-16T02:50:00.318Z,887.4
2022-11-16T02:51:00.456Z,887.4
2022-11-16T02:52:00.304Z,887.4
2022-11-16T02:53:00.298Z,887.4
2022-11-16T02:54:00.340Z,887.4
2022-11-16T02:55:00.520Z,887.4
2022-11-16T02:56:00.297Z,887.5
2022-11-16T02:57:00.375Z,887.4
2022-11-16T02:58:00.384Z,887.4
2022-11-16T02:59:00.337Z,887.5
2022-11-16T03:00:00.382Z,887.5
2022-11-16T03:01:00.710Z,887.5
2022-11-16T03:02:00.364Z,887.5
2022-11-16T03:03:00.336Z,887.5
2022-11-16T03:04:00.309Z,887.6
2022-11-16T03:05:00.299Z,887.6
2022-11-16T03:06:00.431Z,887.6
2022-11-16T03:07:00.595Z,887.6
2022-11-16T03:08:00.284Z,887.6
2022-11-16T03:09:00.321Z,887.5
2022-11-16T03:10:00.295Z,887.5
2022-11-16T03:11:00.284Z,887.5
2022-11-16T03:12:00.334Z,887.6
2022-11-16T03:13:00.614Z,887.5
2022-11-16T03:14:00.407Z,887.5
2022-11-16T03:15:00.327Z,887.5
2022-11-16T03:16:00.368Z,887.6
2022-11-16T03:17:00.353Z,887.6
2022-11-16T03:18:00.298Z,887.6
2022-11-16T03:19:00.539Z,887.7
2022-11-16T03:20:00.321Z,887.7
2022-11-16T03:21:00.413Z,887.7
2022-11-16T03:22:00.459Z,887.7
2022-11-16T03:23:00.309Z,887.7
2022-11-16T03:24:00.282Z,887.7
2022-11-16T03:25:00.378Z,887.7
2022-11-16T03:26:00.301Z,887.7
2022-11-16T03:27:00.292Z,887.8
2022-11-16T03:28:00.332Z,887.8
2022-11-16T03:29:00.395Z,887.8
2022-11-16T03:30:00.380Z,887.8
2022-11-16T03:31:00.512Z,887.8
2022-11-16T03:32:00.340Z,887.7
2022-11-16T03:33:00.346Z,887.7
2022-11-16T03:34:00.296Z,887.7
2022-11-16T03:35:00.327Z,887.6
2022-11-16T03:36:00.321Z,887.6
2022-11-16T03:37:00.631Z,887.6
2022-11-16T03:38:00.292Z,887.6
2022-11-16T03:39:00.306Z,887.6
2022-11-16T03:40:00.326Z,887.6
2022-11-16T03:41:00.320Z,887.5
2022-11-16T03:42:00.324Z,887.5
2022-11-16T03:43:00.462Z,887.5
2022-11-16T03:44:00.304Z,887.5
2022-11-16T03:45:00.305Z,887.5
2022-11-16T03:46:00.303Z,887.5
2022-11-16T03:47:00.283Z,887.5
2022-11-16T03:48:00.305Z,887.5
2022-11-16T03:49:00.539Z,887.5
2022-11-16T03:50:00.332Z,887.5
2022-11-16T03:51:00.292Z,887.5
2022-11-16T03:52:00.475Z,887.5
2022-11-16T03:53:00.434Z,887.5
2022-11-16T03:54:00.297Z,887.5
2022-11-16T03:55:00.431Z,887.5
2022-11-16T03:56:00.297Z,887.5
2022-11-16T03:57:00.304Z,887.5
2022-11-16T03:58:00.298Z,887.5
2022-11-16T03:59:00.277Z,887.5
2022-11-16T04:00:00.282Z,887.5
2022-11-16T04:01:00.554Z,887.5
2022-11-16T04:02:00.278Z,887.5
2022-11-16T04:03:00.294Z,887.6
2022-11-16T04:04:00.348Z,887.5
2022-11-16T04:05:00.317Z,887.6
2022-11-16T04:06:00.289Z,887.6
2022-11-16T04:07:00.538Z,887.6
2022-11-16T04:08:00.494Z,887.6
2022-11-16T04:09:00.308Z,887.7
2022-11-16T04:10:00.337Z,887.7
2022-11-16T04:11:00.280Z,887.7
2022-11-16T04:12:00.309Z,887.7
2022-11-16T04:13:00.472Z,887.7
2022-11-16T04:14:01.595Z,887.7
2022-11-16T04:15:00.290Z,887.7
2022-11-16T04:16:00.287Z,887.7
2022-11-16T04:17:00.301Z,887.7
2022-11-16T04:18:00.358Z,887.7
2022-11-16T04:19:00.497Z,887.7
2022-11-16T04:20:00.339Z,887.7
2022-11-16T04:21:00.369Z,887.7
2022-11-16T04:22:00.306Z,887.7
2022-11-16T04:23:00.463Z,887.7
2022-11-16T04:24:00.352Z,887.7
2022-11-16T04:25:00.473Z,887.7
2022-11-16T04:26:00.317Z,887.8
2022-11-16T04:27:00.279Z,887.7
2022-11-16T04:28:00.320Z,887.7
2022-11-16T04:29:00.294Z,887.7
2022-11-16T04:30:00.324Z,887.7
2022-11-16T04:31:00.421Z,887.7
2022-11-16T04:32:00.297Z,887.6
2022-11-16T04:33:00.326Z,887.7
2022-11-16T04:34:00.315Z,887.7
2022-11-16T04:35:00.303Z,887.6
2022-11-16T04:36:00.330Z,887.7
2022-11-16T04:37:00.493Z,887.7
2022-11-16T04:38:00.302Z,887.6
2022-11-16T04:39:00.426Z,887.7
2022-11-16T04:40:00.320Z,887.6
2022-11-16T04:41:00.318Z,887.7
2022-11-16T04:42:00.295Z,887.6
2022-11-16T04:43:00.436Z,887.6
2022-11-16T04:44:00.305Z,887.6
2022-11-16T04:45:00.315Z,887.6
2022-11-16T04:46:00.318Z,887.6
2022-11-16T04:47:00.275Z,887.6
2022-11-16T04:48:00.327Z,887.6
2022-11-16T04:49:00.453Z,887.6
2022-11-16T04:50:00.379Z,887.6
2022-11-16T04:51:00.370Z,887.6
2022-11-16T04:52:00.337Z,887.7
2022-11-16T04:53:00.281Z,887.7
2022-11-16T04:54:00.509Z,887.7
2022-11-16T04:55:00.542Z,887.7
2022-11-16T04:56:01.063Z,887.7
2022-11-16T04:57:00.296Z,887.7
2022-11-16T04:58:00.300Z,887.7
2022-11-16T04:59:00.301Z,887.7
2022-11-16T05:00:00.344Z,887.6
2022-11-16T05:01:00.574Z,887.6
2022-11-16T05:02:00.319Z,887.6
2022-11-16T05:03:01.772Z,887.6
2022-11-16T05:04:00.357Z,887.6
2022-11-16T05:05:00.329Z,887.6
2022-11-16T05:06:00.340Z,887.7
2022-11-16T05:07:00.531Z,887.7
2022-11-16T05:08:00.292Z,887.7
2022-11-16T05:09:00.302Z,887.6
2022-11-16T05:10:00.435Z,887.6
2022-11-16T05:11:00.325Z,887.6
2022-11-16T05:12:00.383Z,887.6
2022-11-16T05:13:00.548Z,887.6
2022-11-16T05:14:00.322Z,887.7
2022-11-16T05:15:00.383Z,887.7
2022-11-16T05:16:00.352Z,887.7
2022-11-16T05:17:00.306Z,887.7
2022-11-16T05:18:00.296Z,887.7
2022-11-16T05:19:00.687Z,887.7
2022-11-16T05:20:00.344Z,887.8
2022-11-16T05:21:00.298Z,887.8
2022-11-16T05:22:00.299Z,887.8
2022-11-16T05:23:00.296Z,887.7
2022-11-16T05:24:00.301Z,887.7
2022-11-16T05:25:00.522Z,887.8
2022-11-16T05:26:00.508Z,887.7
2022-11-16T05:27:00.284Z,887.7
2022-11-16T05:28:00.395Z,887.7
2022-11-16T05:29:00.343Z,887.7
2022-11-16T05:30:00.315Z,887.7
2022-11-16T05:31:00.429Z,887.7
2022-11-16T05:32:00.378Z,887.7
2022-11-16T05:33:00.394Z,887.7
2022-11-16T05:34:00.296Z,887.7
2022-11-16T05:35:00.361Z,887.7
2022-11-16T05:36:00.280Z,887.7
2022-11-16T05:37:00.470Z,887.7
2022-11-16T05:38:00.309Z,887.7
2022-11-16T05:39:00.316Z,887.7
2022-11-16T05:40:00.314Z,887.6
2022-11-16T05:41:00.438Z,887.6
2022-11-16T05:42:00.281Z,887.6
2022-11-16T05:43:00.544Z,887.6
2022-11-16T05:44:00.306Z,887.6
2022-11-16T05:45:00.307Z,887.6
2022-11-16T05:46:00.330Z,887.6
2022-11-16T05:47:00.331Z,887.5
2022-11-16T05:48:00.299Z,887.5
2022-11-16T05:49:00.412Z,887.5
2022-11-16T05:50:00.327Z,887.5
2022-11-16T05:51:00.366Z,887.5
2022-11-16T05:52:00.332Z,887.5
2022-11-16T05:53:00.330Z,887.5
2022-11-16T05:54:00.307Z,887.5
2022-11-16T05:55:00.546Z,887.5
2022-11-16T05:56:00.534Z,887.5
2022-11-16T05:57:00.444Z,887.4
2022-11-16T05:58:00.353Z,887.4
2022-11-16T05:59:00.308Z,887.4
2022-11-16T06:00:00.362Z,887.4
2022-11-16T06:01:00.429Z,887.4
2022-11-16T06:02:00.299Z,887.4
2022-11-16T06:03:00.474Z,887.4
2022-11-16T06:04:00.295Z,887.4
2022-11-16T06:05:00.301Z,887.4
2022-11-16T06:06:00.324Z,887.5
2022-11-16T06:07:00.501Z,887.5
2022-11-16T06:08:00.310Z,887.5
2022-11-16T06:09:00.334Z,887.4
2022-11-16T06:10:00.311Z,887.4
2022-11-16T06:11:00.304Z,887.4
2022-11-16T06:12:00.493Z,887.3
2022-11-16T06:13:00.402Z,887.3
2022-11-16T06:14:00.299Z,887.3
2022-11-16T06:15:00.310Z,887.3
2022-11-16T06:16:00.300Z,887.2
2022-11-16T06:17:00.319Z,887.2
2022-11-16T06:18:00.301Z,887.2
2022-11-16T06:19:00.461Z,887.2
2022-11-16T06:20:00.286Z,887.2
2022-11-16T06:21:00.308Z,887.2
2022-11-16T06:22:00.293Z,887.2
2022-11-16T06:23:00.297Z,887.2
2022-11-16T06:24:00.344Z,887.2
2022-11-16T06:25:00.444Z,887.2
2022-11-16T06:26:00.345Z,887.2
2022-11-16T06:27:00.445Z,887.2
2022-11-16T06:28:05.260Z,887.2
2022-11-16T06:29:00.279Z,887.2
2022-11-16T06:30:00.301Z,887.2
2022-11-16T06:31:00.505Z,887.2
2022-11-16T06:32:00.308Z,887.2
2022-11-16T06:33:00.379Z,887.2
2022-11-16T06:34:00.294Z,887.2
2022-11-16T06:35:00.324Z,887.2
2022-11-16T06:36:00.329Z,887.2
2022-11-16T06:37:00.713Z,887.2
2022-11-16T06:38:00.322Z,887.2
2022-11-16T06:39:00.318Z,887.2
2022-11-16T06:40:00.290Z,887.2
2022-11-16T06:41:00.284Z,887.2
2022-11-16T06:42:00.442Z,887.2
2022-11-16T06:43:00.434Z,887.2
2022-11-16T06:44:00.297Z,887.2
2022-11-16T06:45:00.283Z,887.2
2022-11-16T06:46:00.339Z,887.2
2022-11-16T06:47:00.582Z,887.2
2022-11-16T06:48:00.407Z,887.3
2022-11-16T06:49:00.670Z,887.2
2022-11-16T06:50:00.287Z,887.2
2022-11-16T06:51:00.310Z,887.2
2022-11-16T06:52:00.319Z,887.3
2022-11-16T06:53:00.309Z,887.2
2022-11-16T06:54:00.320Z,887.3
2022-11-16T06:55:00.555Z,887.2
2022-11-16T06:56:00.310Z,887.2
2022-11-16T06:57:00.405Z,887.2
2022-11-16T06:58:00.389Z,887.2
2022-11-16T06:59:00.420Z,887.2
2022-11-16T07:00:00.504Z,887.2
2022-11-16T07:01:00.462Z,887.2
2022-11-16T07:02:00.397Z,887.2
2022-11-16T07:03:00.354Z,887.2
2022-11-16T07:04:00.333Z,887.2
2022-11-16T07:05:03.549Z,887.2
2022-11-16T07:06:00.296Z,887.1
2022-11-16T07:07:00.511Z,887.1
2022-11-16T07:08:00.328Z,887.1
2022-11-16T07:09:00.304Z,887.1
2022-11-16T07:10:00.306Z,887.1
2022-11-16T07:11:04.181Z,887.1
2022-11-16T07:12:00.492Z,887.1
2022-11-16T07:13:00.506Z,887.0
2022-11-16T07:14:00.281Z,887.0
2022-11-16T07:15:00.305Z,887.0
2022-11-16T07:16:00.300Z,887.0
2022-11-16T07:17:03.940Z,887.0
2022-11-16T07:18:00.297Z,887.0
2022-11-16T07:19:00.572Z,887.0
2022-11-16T07:20:00.311Z,887.0
2022-11-16T07:21:00.323Z,887.0
2022-11-16T07:22:00.278Z,887.0
2022-11-16T07:23:00.283Z,887.0
2022-11-16T07:24:00.323Z,887.0
2022-11-16T07:25:00.422Z,887.0
2022-11-16T07:26:00.328Z,887.0
2022-11-16T07:27:00.300Z,887.0
2022-11-16T07:28:00.291Z,887.0
2022-11-16T07:29:00.520Z,887.0
2022-11-16T07:30:00.291Z,887.0
2022-11-16T07:31:00.571Z,886.9
2022-11-16T07:32:00.309Z,887.0
2022-11-16T07:33:00.394Z,886.9
2022-11-16T07:34:00.330Z,886.9
2022-11-16T07:35:00.366Z,886.9
2022-11-16T07:36:00.311Z,886.9
2022-11-16T07:37:00.648Z,886.9
2022-11-16T07:38:00.291Z,886.9
2022-11-16T07:39:00.302Z,886.9
2022-11-16T07:40:00.286Z,886.8
2022-11-16T07:41:00.297Z,886.8
2022-11-16T07:42:00.280Z,886.8
2022-11-16T07:43:00.459Z,886.7
2022-11-16T07:44:00.491Z,886.8
2022-11-16T07:45:00.390Z,886.8
2022-11-16T07:46:21.379Z,886.8
2022-11-16T07:47:00.307Z,886.8
2022-11-16T07:48:00.325Z,886.7
2022-11-16T07:49:00.423Z,886.7
2022-11-16T07:50:00.331Z,886.7
2022-11-16T07:51:00.295Z,886.6
2022-11-16T07:52:00.279Z,886.6
2022-11-16T07:53:00.325Z,886.6
2022-11-16T07:54:00.289Z,886.6
2022-11-16T07:55:00.428Z,886.6
2022-11-16T07:56:00.348Z,886.6
2022-11-16T07:57:00.346Z,886.6
2022-11-16T07:58:00.290Z,886.6
2022-11-16T07:59:00.300Z,886.6
2022-11-16T08:00:00.397Z,886.5
2022-11-16T08:01:00.450Z,886.5
2022-11-16T08:02:00.423Z,886.5
2022-11-16T08:03:00.321Z,886.5
2022-11-16T08:04:00.296Z,886.5
2022-11-16T08:05:00.328Z,886.5
2022-11-16T08:06:00.287Z,886.5
2022-11-16T08:07:00.482Z,886.5
2022-11-16T08:08:00.582Z,886.5
2022-11-16T08:09:00.297Z,886.5
2022-11-16T08:10:00.402Z,886.5
2022-11-16T08:11:00.309Z,886.5
2022-11-16T08:12:00.351Z,886.5
2022-11-16T08:13:00.594Z,886.5
2022-11-16T08:14:00.349Z,886.5
2022-11-16T08:15:00.538Z,886.4
2022-11-16T08:16:00.465Z,886.4
2022-11-16T08:17:00.421Z,886.4
2022-11-16T08:18:00.523Z,886.3
2022-11-16T08:19:00.618Z,886.3
2022-11-16T08:20:00.368Z,886.4
2022-11-16T08:21:00.503Z,886.3
2022-11-16T08:22:00.507Z,886.3
2022-11-16T08:23:00.548Z,886.3
2022-11-16T08:24:00.581Z,886.3
2022-11-16T08:25:00.462Z,886.3
2022-11-16T08:26:00.478Z,886.3
2022-11-16T08:27:00.299Z,886.3
2022-11-16T08:28:00.307Z,886.3
2022-11-16T08:29:00.301Z,886.3
2022-11-16T08:30:00.469Z,886.2
2022-11-16T08:31:00.452Z,886.2
2022-11-16T08:32:00.291Z,886.3
2022-11-16T08:33:00.331Z,886.2
2022-11-16T08:34:00.317Z,886.2
2022-11-16T08:35:00.337Z,886.3
2022-11-16T08:36:00.333Z,886.3
2022-11-16T08:37:00.511Z,886.2
2022-11-16T08:38:00.324Z,886.2
2022-11-16T08:39:00.320Z,886.2
2022-11-16T08:40:00.297Z,886.2
2022-11-16T08:41:00.337Z,886.2
2022-11-16T08:42:00.338Z,886.1
2022-11-16T08:43:00.589Z,886.1
2022-11-16T08:44:00.342Z,886.1
2022-11-16T08:45:00.441Z,886.0
2022-11-16T08:46:00.372Z,886.0
2022-11-16T08:47:00.427Z,886.0
2022-11-16T08:48:03.969Z,886.0
2022-11-16T08:49:00.857Z,886.0
2022-11-16T08:51:17.454Z,886.0
2022-11-16T08:53:00.425Z,885.9
2022-11-16T08:54:00.441Z,885.9
2022-11-16T08:55:00.552Z,885.9
2022-11-16T08:56:00.331Z,885.9
2022-11-16T08:57:00.311Z,885.9
2022-11-16T08:58:00.353Z,885.9
2022-11-16T08:59:00.293Z,885.9
2022-11-16T09:00:00.466Z,885.9
2022-11-16T09:01:00.846Z,885.8
2022-11-16T09:02:00.409Z,885.8
2022-11-16T09:03:00.643Z,885.8
2022-11-16T09:04:00.352Z,885.7
2022-11-16T09:05:00.366Z,885.7
2022-11-16T09:06:01.057Z,885.7
2022-11-16T09:07:00.537Z,885.7
2022-11-16T09:08:00.352Z,885.6
2022-11-16T09:09:00.349Z,885.6
2022-11-16T09:10:00.298Z,885.6
2022-11-16T09:11:00.457Z,885.6
2022-11-16T09:12:02.156Z,885.6
2022-11-16T09:13:00.582Z,885.6
2022-11-16T09:14:04.666Z,885.6
2022-11-16T09:15:00.360Z,885.6
2022-11-16T09:16:00.385Z,885.6
2022-11-16T09:17:00.290Z,885.6
2022-11-16T09:18:00.279Z,885.6
2022-11-16T09:19:00.516Z,885.5
2022-11-16T09:20:00.274Z,885.5
2022-11-16T09:21:00.319Z,885.5
2022-11-16T09:22:00.389Z,885.5
2022-11-16T09:23:00.292Z,885.5
2022-11-16T09:24:00.377Z,885.5
2022-11-16T09:25:00.604Z,885.5
2022-11-16T09:26:00.284Z,885.5
2022-11-16T09:27:00.309Z,885.5
2022-11-16T09:28:00.293Z,885.5
2022-11-16T09:29:00.313Z,885.5
2022-11-16T09:30:00.302Z,885.4
2022-11-16T09:31:00.665Z,885.4
2022-11-16T09:32:00.286Z,885.4
2022-11-16T09:33:00.290Z,885.4
2022-11-16T09:34:00.293Z,885.3
2022-11-16T09:35:00.325Z,885.2
2022-11-16T09:36:00.286Z,885.2
2022-11-16T09:37:00.429Z,885.2
2022-11-16T09:38:00.300Z,885.2
2022-11-16T09:39:30.544Z,885.2
2022-11-16T09:41:00.358Z,885.2
2022-11-16T09:42:00.301Z,885.1
2022-11-16T09:43:00.490Z,885.1
2022-11-16T09:44:00.293Z,885.1
2022-11-16T09:45:00.316Z,885.1
2022-11-16T09:46:00.551Z,885.1
2022-11-16T09:47:00.412Z,885.1
2022-11-16T09:48:00.284Z,885.1
2022-11-16T09:49:00.412Z,885.0
2022-11-16T09:50:04.117Z,885.0
2022-11-16T09:51:00.294Z,885.0
2022-11-16T09:52:00.297Z,885.0
2022-11-16T09:53:03.883Z,885.0
2022-11-16T09:54:00.316Z,885.0
2022-11-16T09:55:00.500Z,885.0
2022-11-16T09:56:00.298Z,885.0
2022-11-16T09:57:00.301Z,885.0
2022-11-16T09:58:00.346Z,885.0
2022-11-16T09:59:00.292Z,885.0
2022-11-16T10:00:00.373Z,884.9
2022-11-16T10:01:00.720Z,884.9
2022-11-16T10:02:00.506Z,884.9
2022-11-16T10:03:00.457Z,884.8
2022-11-16T10:04:00.309Z,884.8
2022-11-16T10:05:00.311Z,884.8
2022-11-16T10:06:00.428Z,884.8
2022-11-16T10:07:01.098Z,884.8
2022-11-16T10:08:00.694Z,884.8
2022-11-16T10:09:00.773Z,884.8
2022-11-16T10:10:00.702Z,884.8
2022-11-16T10:11:00.733Z,884.8
2022-11-16T10:12:00.649Z,884.8
2022-11-16T10:13:00.782Z,884.8
2022-11-16T10:14:04.224Z,884.7
2022-11-16T10:15:00.805Z,884.8
2022-11-16T10:16:00.663Z,884.8
2022-11-16T10:17:00.673Z,884.7
2022-11-16T10:18:00.842Z,884.7
2022-11-16T10:19:01.017Z,884.7
2022-11-16T10:20:00.614Z,884.7
2022-11-16T10:21:00.488Z,884.7
2022-11-16T10:22:00.720Z,884.7
2022-11-16T10:23:00.690Z,884.7
2022-11-16T10:24:00.742Z,884.7
2022-11-16T10:25:01.060Z,884.7
2022-11-16T10:26:00.529Z,884.6
2022-11-16T10:27:00.685Z,884.6
2022-11-16T10:28:00.701Z,884.6
2022-11-16T10:29:00.315Z,884.6
2022-11-16T10:30:00.650Z,884.6
2022-11-16T10:31:00.833Z,884.6
2022-11-16T10:32:00.659Z,884.6
2022-11-16T10:33:00.853Z,884.6
2022-11-16T10:34:00.921Z,884.6
2022-11-16T10:35:00.629Z,884.6
2022-11-16T10:36:00.426Z,884.6
2022-11-16T10:37:00.761Z,884.5
2022-11-16T10:38:00.631Z,884.5
2022-11-16T10:39:00.587Z,884.5
2022-11-16T10:40:00.760Z,884.5
2022-11-16T10:41:00.565Z,884.5
2022-11-16T10:42:06.131Z,884.5
2022-11-16T10:43:00.803Z,884.4
2022-11-16T10:44:00.690Z,884.4
2022-11-16T10:45:00.740Z,884.4
2022-11-16T10:46:00.595Z,884.4
2022-11-16T10:47:00.684Z,884.4
2022-11-16T10:48:00.661Z,884.4
2022-11-16T10:49:00.743Z,884.4
2022-11-16T10:50:00.337Z,884.3
2022-11-16T10:51:00.495Z,884.3
2022-11-16T10:52:00.638Z,884.3
2022-11-16T10:53:00.725Z,884.3
2022-11-16T10:54:00.630Z,884.3
2022-11-16T10:55:00.970Z,884.3
2022-11-16T10:56:00.297Z,884.2
2022-11-16T10:57:00.298Z,884.2
2022-11-16T10:58:00.304Z,884.2
2022-11-16T10:59:00.303Z,884.2
2022-11-16T11:00:00.314Z,884.2
2022-11-16T11:01:00.771Z,884.2
2022-11-16T11:02:00.305Z,884.2
2022-11-16T11:03:00.313Z,884.2
2022-11-16T11:04:00.627Z,884.2
2022-11-16T11:05:00.296Z,884.1
2022-11-16T11:06:00.288Z,884.1
2022-11-16T11:07:00.495Z,884.2
2022-11-16T11:08:00.287Z,884.1
2022-11-16T11:09:00.287Z,884.1
2022-11-16T11:10:00.380Z,884.1
2022-11-16T11:11:00.405Z,884.1
2022-11-16T11:12:00.307Z,884.1
2022-11-16T11:13:00.550Z,884.1
2022-11-16T11:14:00.302Z,884.1
2022-11-16T11:15:00.360Z,884.1
2022-11-16T11:16:00.318Z,884.1
2022-11-16T11:17:00.350Z,884.1
2022-11-16T11:18:00.313Z,884.1
2022-11-16T11:19:00.462Z,884.1
2022-11-16T11:20:00.315Z,884.1
2022-11-16T11:21:00.305Z,884.1
2022-11-16T11:22:00.299Z,884.1
2022-11-16T11:23:00.302Z,884.1
2022-11-16T11:24:16.397Z,884.1
2022-11-16T11:25:00.402Z,884.0
2022-11-16T11:26:00.354Z,884.0
2022-11-16T11:27:00.376Z,884.0
2022-11-16T11:28:00.285Z,883.9
2022-11-16T11:29:00.353Z,884.0
2022-11-16T11:30:00.316Z,884.0
2022-11-16T11:31:00.492Z,883.9
2022-11-16T11:32:00.330Z,883.9
2022-11-16T11:33:00.312Z,884.0
2022-11-16T11:34:00.536Z,883.9
2022-11-16T11:35:00.312Z,883.9
2022-11-16T11:36:00.281Z,883.9
2022-11-16T11:37:00.515Z,883.8
2022-11-16T11:38:04.772Z,883.8
2022-11-16T11:39:02.157Z,883.8
2022-11-16T11:40:02.062Z,883.8
2022-11-16T11:41:00.302Z,883.8
2022-11-16T11:42:00.294Z,883.8
2022-11-16T11:43:00.446Z,883.9
2022-11-16T11:44:00.337Z,883.8
2022-11-16T11:45:00.296Z,883.8
2022-11-16T11:46:00.301Z,883.9
2022-11-16T11:47:50.429Z,883.8
2022-11-16T11:48:00.717Z,883.9
2022-11-16T11:49:00.533Z,883.8
2022-11-16T11:50:00.304Z,883.8
2022-11-16T11:51:00.424Z,883.8
2022-11-16T11:52:00.308Z,883.8
2022-11-16T11:53:00.305Z,883.8
2022-11-16T11:54:00.389Z,883.8
2022-11-16T11:55:00.477Z,883.8
2022-11-16T11:56:00.286Z,883.8
2022-11-16T11:57:00.317Z,883.8
2022-11-16T11:58:00.283Z,883.8
2022-11-16T11:59:00.296Z,883.8
2022-11-16T12:00:00.324Z,883.8
2022-11-16T12:01:00.550Z,883.7
2022-11-16T12:02:00.361Z,883.8
2022-11-16T12:03:00.376Z,883.7
2022-11-16T12:04:00.448Z,883.8
2022-11-16T12:05:00.288Z,883.7
2022-11-16T12:06:00.359Z,883.7
2022-11-16T12:07:00.603Z,883.7
2022-11-16T12:08:00.328Z,883.7
2022-11-16T12:09:00.366Z,883.7
2022-11-16T12:10:00.323Z,883.7
2022-11-16T12:11:00.290Z,883.7
2022-11-16T12:12:00.314Z,883.6
2022-11-16T12:13:00.456Z,883.6
2022-11-16T12:14:00.298Z,883.6
2022-11-16T12:15:00.304Z,883.6
2022-11-16T12:16:00.317Z,883.5
2022-11-16T12:17:00.326Z,883.5
2022-11-16T12:18:00.303Z,883.5
2022-11-16T12:19:00.506Z,883.5
2022-11-16T12:20:00.305Z,883.5
2022-11-16T12:21:00.287Z,883.5
2022-11-16T12:22:00.300Z,883.5
2022-11-16T12:23:03.948Z,883.5
2022-11-16T12:24:00.310Z,883.5
2022-11-16T12:25:00.486Z,883.6
2022-11-16T12:26:00.374Z,883.5
2022-11-16T12:27:00.310Z,883.5
2022-11-16T12:28:00.326Z,883.5
2022-11-16T12:29:00.302Z,883.5
2022-11-16T12:30:00.324Z,883.5
2022-11-16T12:31:00.601Z,883.5
2022-11-16T12:32:00.307Z,883.5
2022-11-16T12:33:00.315Z,883.5
2022-11-16T12:34:00.284Z,883.5
2022-11-16T12:35:00.461Z,883.5
2022-11-16T12:36:00.288Z,883.5
2022-11-16T12:37:00.460Z,883.5
2022-11-16T12:38:00.299Z,883.5
2022-11-16T12:39:00.302Z,883.5
2022-11-16T12:40:00.288Z,883.5
2022-11-16T12:41:00.354Z,883.5
2022-11-16T12:42:00.376Z,883.5
2022-11-16T12:43:00.517Z,883.5
2022-11-16T12:44:00.283Z,883.4
2022-11-16T12:45:00.381Z,883.4
2022-11-16T12:46:00.301Z,883.5
2022-11-16T12:47:00.345Z,883.5
2022-11-16T12:48:00.310Z,883.5
2022-11-16T12:49:00.455Z,883.4
2022-11-16T12:50:00.687Z,883.4
2022-11-16T12:51:00.284Z,883.4
2022-11-16T12:52:00.278Z,883.4
2022-11-16T12:53:00.322Z,883.4
2022-11-16T12:54:00.302Z,883.4
2022-11-16T12:55:25.367Z,883.4